sensor_id;sensor_type;location;lat;lon;timestamp;temperature;humidity
67196;DHT22;54122;53.538;49.366;2022-12-10T00:01:20;-6.30;59.60
67196;DHT22;54122;53.538;49.366;2022-12-10T00:03:47;-6.30;59.50
67196;DHT22;54122;53.538;49.366;2022-12-10T00:06:19;-6.20;59.10
67196;DHT22;54122;53.538;49.366;2022-12-10T00:08:46;-6.20;59.10
67196;DHT22;54122;53.538;49.366;2022-12-10T00:11:15;-6.20;58.90
67196;DHT22;54122;53.538;49.366;2022-12-10T00:13:43;-6.20;58.70
67196;DHT22;54122;53.538;49.366;2022-12-10T00:16:12;-6.20;58.70
67196;DHT22;54122;53.538;49.366;2022-12-10T00:18:39;-6.10;58.40
67196;DHT22;54122;53.538;49.366;2022-12-10T00:21:07;-6.10;57.90
67196;DHT22;54122;53.538;49.366;2022-12-10T00:23:34;-6.00;58.90
67196;DHT22;54122;53.538;49.366;2022-12-10T00:26:12;-6.00;57.30
67196;DHT22;54122;53.538;49.366;2022-12-10T00:28:40;-5.90;57.20
67196;DHT22;54122;53.538;49.366;2022-12-10T00:31:28;-5.90;56.70
67196;DHT22;54122;53.538;49.366;2022-12-10T00:33:56;-5.90;56.50
67196;DHT22;54122;53.538;49.366;2022-12-10T00:36:29;-5.90;56.50
67196;DHT22;54122;53.538;49.366;2022-12-10T00:38:56;-6.00;56.50
67196;DHT22;54122;53.538;49.366;2022-12-10T00:41:22;-6.00;56.20
67196;DHT22;54122;53.538;49.366;2022-12-10T00:43:49;-6.00;56.20
67196;DHT22;54122;53.538;49.366;2022-12-10T00:46:18;-6.00;56.10
67196;DHT22;54122;53.538;49.366;2022-12-10T00:48:45;-6.10;56.10
67196;DHT22;54122;53.538;49.366;2022-12-10T00:51:17;-6.10;56.20
67196;DHT22;54122;53.538;49.366;2022-12-10T00:53:45;-6.10;56.30
67196;DHT22;54122;53.538;49.366;2022-12-10T00:56:15;-6.20;56.50
67196;DHT22;54122;53.538;49.366;2022-12-10T00:58:42;-6.20;56.60
67196;DHT22;54122;53.538;49.366;2022-12-10T01:01:11;-6.10;56.60
67196;DHT22;54122;53.538;49.366;2022-12-10T01:03:39;-6.10;56.60
67196;DHT22;54122;53.538;49.366;2022-12-10T01:08:48;-6.10;56.30
67196;DHT22;54122;53.538;49.366;2022-12-10T01:11:17;-6.10;56.50
67196;DHT22;54122;53.538;49.366;2022-12-10T01:13:44;-6.10;56.30
67196;DHT22;54122;53.538;49.366;2022-12-10T01:16:13;-6.10;56.30
67196;DHT22;54122;53.538;49.366;2022-12-10T01:18:40;-6.10;56.60
67196;DHT22;54122;53.538;49.366;2022-12-10T01:21:13;-6.10;56.60
67196;DHT22;54122;53.538;49.366;2022-12-10T01:23:41;-6.10;56.60
67196;DHT22;54122;53.538;49.366;2022-12-10T01:26:14;-6.20;56.60
67196;DHT22;54122;53.538;49.366;2022-12-10T01:28:41;-6.20;56.60
67196;DHT22;54122;53.538;49.366;2022-12-10T01:31:29;-6.20;56.60
67196;DHT22;54122;53.538;49.366;2022-12-10T01:33:57;-6.20;57.70
67196;DHT22;54122;53.538;49.366;2022-12-10T01:36:29;-6.20;56.80
67196;DHT22;54122;53.538;49.366;2022-12-10T01:38:57;-6.30;56.90
67196;DHT22;54122;53.538;49.366;2022-12-10T01:41:30;-6.30;57.00
67196;DHT22;54122;53.538;49.366;2022-12-10T01:46:30;-6.30;57.20
67196;DHT22;54122;53.538;49.366;2022-12-10T01:48:58;-6.40;57.50
67196;DHT22;54122;53.538;49.366;2022-12-10T01:51:30;-6.40;57.70
67196;DHT22;54122;53.538;49.366;2022-12-10T01:53:57;-6.40;57.90
67196;DHT22;54122;53.538;49.366;2022-12-10T01:56:24;-6.40;57.90
67196;DHT22;54122;53.538;49.366;2022-12-10T01:58:53;-6.40;57.70
67196;DHT22;54122;53.538;49.366;2022-12-10T02:01:23;-6.50;57.80
67196;DHT22;54122;53.538;49.366;2022-12-10T02:14:55;-6.60;58.20
67196;DHT22;54122;53.538;49.366;2022-12-10T02:17:43;-6.50;58.30
67196;DHT22;54122;53.538;49.366;2022-12-10T02:20:18;-6.50;58.20
67196;DHT22;54122;53.538;49.366;2022-12-10T02:23:09;-6.60;57.80
67196;DHT22;54122;53.538;49.366;2022-12-10T02:26:00;-6.60;57.80
67196;DHT22;54122;53.538;49.366;2022-12-10T02:28:39;-6.60;57.80
67196;DHT22;54122;53.538;49.366;2022-12-10T02:31:10;-6.60;57.70
67196;DHT22;54122;53.538;49.366;2022-12-10T02:33:42;-6.50;57.50
67196;DHT22;54122;53.538;49.366;2022-12-10T02:36:10;-6.50;57.10
67196;DHT22;54122;53.538;49.366;2022-12-10T02:38:40;-6.50;57.00
67196;DHT22;54122;53.538;49.366;2022-12-10T02:41:22;-6.40;56.90
67196;DHT22;54122;53.538;49.366;2022-12-10T02:43:52;-6.40;56.70
67196;DHT22;54122;53.538;49.366;2022-12-10T02:46:21;-6.40;56.50
67196;DHT22;54122;53.538;49.366;2022-12-10T02:48:50;-6.40;56.50
67196;DHT22;54122;53.538;49.366;2022-12-10T02:51:18;-6.40;56.50
67196;DHT22;54122;53.538;49.366;2022-12-10T02:53:45;-6.40;56.10
67196;DHT22;54122;53.538;49.366;2022-12-10T03:04:01;-6.50;55.80
67196;DHT22;54122;53.538;49.366;2022-12-10T03:06:38;-6.50;55.80
67196;DHT22;54122;53.538;49.366;2022-12-10T03:09:17;-6.50;55.90
67196;DHT22;54122;53.538;49.366;2022-12-10T03:11:46;-6.50;55.90
67196;DHT22;54122;53.538;49.366;2022-12-10T03:14:24;-6.40;55.80
67196;DHT22;54122;53.538;49.366;2022-12-10T03:16:55;-6.40;55.70
67196;DHT22;54122;53.538;49.366;2022-12-10T03:19:28;-6.40;55.70
67196;DHT22;54122;53.538;49.366;2022-12-10T03:21:58;-6.40;55.50
67196;DHT22;54122;53.538;49.366;2022-12-10T03:24:27;-6.50;55.40
67196;DHT22;54122;53.538;49.366;2022-12-10T03:26:54;-6.50;55.40
67196;DHT22;54122;53.538;49.366;2022-12-10T03:29:47;-6.50;55.10
67196;DHT22;54122;53.538;49.366;2022-12-10T03:32:15;-6.50;55.00
67196;DHT22;54122;53.538;49.366;2022-12-10T03:34:44;-6.50;55.00
67196;DHT22;54122;53.538;49.366;2022-12-10T03:37:12;-6.40;54.50
67196;DHT22;54122;53.538;49.366;2022-12-10T03:39:40;-6.50;54.20
67196;DHT22;54122;53.538;49.366;2022-12-10T03:42:07;-6.40;54.30
67196;DHT22;54122;53.538;49.366;2022-12-10T03:44:36;-6.50;54.20
67196;DHT22;54122;53.538;49.366;2022-12-10T03:47:05;-6.40;54.10
67196;DHT22;54122;53.538;49.366;2022-12-10T03:49:32;-6.50;54.00
67196;DHT22;54122;53.538;49.366;2022-12-10T03:51:58;-6.50;54.00
67196;DHT22;54122;53.538;49.366;2022-12-10T03:54:25;-6.50;53.90
67196;DHT22;54122;53.538;49.366;2022-12-10T03:56:51;-6.50;53.80
67196;DHT22;54122;53.538;49.366;2022-12-10T03:59:18;-6.50;53.70
67196;DHT22;54122;53.538;49.366;2022-12-10T04:01:45;-6.50;53.70
67196;DHT22;54122;53.538;49.366;2022-12-10T04:04:11;-6.60;53.80
67196;DHT22;54122;53.538;49.366;2022-12-10T04:06:40;-6.60;54.00
67196;DHT22;54122;53.538;49.366;2022-12-10T04:09:12;-6.60;54.10
67196;DHT22;54122;53.538;49.366;2022-12-10T04:11:39;-6.70;54.30
67196;DHT22;54122;53.538;49.366;2022-12-10T04:14:05;-6.70;54.60
67196;DHT22;54122;53.538;49.366;2022-12-10T04:16:50;-6.80;54.70
67196;DHT22;54122;53.538;49.366;2022-12-10T04:19:17;-6.80;54.90
67196;DHT22;54122;53.538;49.366;2022-12-10T04:21:45;-6.80;54.90
67196;DHT22;54122;53.538;49.366;2022-12-10T04:24:33;-6.80;54.90
67196;DHT22;54122;53.538;49.366;2022-12-10T04:27:24;-6.80;54.90
67196;DHT22;54122;53.538;49.366;2022-12-10T04:29:52;-6.90;55.00
67196;DHT22;54122;53.538;49.366;2022-12-10T04:32:20;-6.80;55.00
67196;DHT22;54122;53.538;49.366;2022-12-10T04:34:46;-6.90;55.10
67196;DHT22;54122;53.538;49.366;2022-12-10T04:37:14;-6.90;55.30
67196;DHT22;54122;53.538;49.366;2022-12-10T04:39:40;-6.90;55.50
67196;DHT22;54122;53.538;49.366;2022-12-10T04:42:07;-7.00;55.60
67196;DHT22;54122;53.538;49.366;2022-12-10T04:44:34;-7.00;55.80
67196;DHT22;54122;53.538;49.366;2022-12-10T04:47:02;-7.10;57.10
67196;DHT22;54122;53.538;49.366;2022-12-10T04:49:29;-7.10;56.10
67196;DHT22;54122;53.538;49.366;2022-12-10T04:51:55;-7.20;56.20
67196;DHT22;54122;53.538;49.366;2022-12-10T04:54:22;-7.20;56.40
67196;DHT22;54122;53.538;49.366;2022-12-10T04:56:49;-7.20;56.50
67196;DHT22;54122;53.538;49.366;2022-12-10T04:59:16;-7.20;56.70
67196;DHT22;54122;53.538;49.366;2022-12-10T05:01:42;-7.20;56.80
67196;DHT22;54122;53.538;49.366;2022-12-10T05:04:12;-7.20;56.90
67196;DHT22;54122;53.538;49.366;2022-12-10T05:06:39;-7.20;56.90
67196;DHT22;54122;53.538;49.366;2022-12-10T05:09:06;-7.20;56.90
67196;DHT22;54122;53.538;49.366;2022-12-10T05:11:34;-7.20;56.90
67196;DHT22;54122;53.538;49.366;2022-12-10T05:14:01;-7.10;56.90
67196;DHT22;54122;53.538;49.366;2022-12-10T05:16:30;-7.10;56.80
67196;DHT22;54122;53.538;49.366;2022-12-10T05:18:57;-7.00;56.70
67196;DHT22;54122;53.538;49.366;2022-12-10T05:21:27;-7.00;56.70
67196;DHT22;54122;53.538;49.366;2022-12-10T05:24:15;-7.00;56.70
67196;DHT22;54122;53.538;49.366;2022-12-10T05:26:42;-6.90;56.60
67196;DHT22;54122;53.538;49.366;2022-12-10T05:29:09;-6.80;56.50
67196;DHT22;54122;53.538;49.366;2022-12-10T05:31:36;-6.70;56.30
67196;DHT22;54122;53.538;49.366;2022-12-10T05:34:02;-6.60;56.20
67196;DHT22;54122;53.538;49.366;2022-12-10T05:36:30;-6.50;55.80
67196;DHT22;54122;53.538;49.366;2022-12-10T05:38:58;-6.40;55.40
67196;DHT22;54122;53.538;49.366;2022-12-10T05:41:30;-6.40;55.10
67196;DHT22;54122;53.538;49.366;2022-12-10T05:43:58;-6.40;55.00
67196;DHT22;54122;53.538;49.366;2022-12-10T05:46:27;-6.30;54.90
67196;DHT22;54122;53.538;49.366;2022-12-10T05:48:55;-6.20;54.50
67196;DHT22;54122;53.538;49.366;2022-12-10T05:51:24;-6.10;54.00
67196;DHT22;54122;53.538;49.366;2022-12-10T05:53:52;-6.00;53.80
67196;DHT22;54122;53.538;49.366;2022-12-10T05:56:21;-5.90;53.90
67196;DHT22;54122;53.538;49.366;2022-12-10T05:58:50;-5.70;53.40
67196;DHT22;54122;53.538;49.366;2022-12-10T06:01:19;-5.60;52.90
67196;DHT22;54122;53.538;49.366;2022-12-10T06:03:46;-5.60;52.90
67196;DHT22;54122;53.538;49.366;2022-12-10T06:06:13;-5.70;52.90
67196;DHT22;54122;53.538;49.366;2022-12-10T06:08:41;-5.70;52.70
67196;DHT22;54122;53.538;49.366;2022-12-10T06:11:09;-5.80;52.60
67196;DHT22;54122;53.538;49.366;2022-12-10T06:13:38;-5.80;52.60
67196;DHT22;54122;53.538;49.366;2022-12-10T06:16:06;-5.80;52.30
67196;DHT22;54122;53.538;49.366;2022-12-10T06:18:34;-5.80;52.30
67196;DHT22;54122;53.538;49.366;2022-12-10T06:21:08;-5.80;52.50
67196;DHT22;54122;53.538;49.366;2022-12-10T06:23:36;-5.70;52.50
67196;DHT22;54122;53.538;49.366;2022-12-10T06:26:05;-5.70;52.40
67196;DHT22;54122;53.538;49.366;2022-12-10T06:28:32;-5.60;52.40
67196;DHT22;54122;53.538;49.366;2022-12-10T06:30:59;-5.60;52.30
67196;DHT22;54122;53.538;49.366;2022-12-10T06:33:26;-5.60;52.20
67196;DHT22;54122;53.538;49.366;2022-12-10T06:35:53;-5.60;52.40
67196;DHT22;54122;53.538;49.366;2022-12-10T06:38:19;-5.60;52.50
67196;DHT22;54122;53.538;49.366;2022-12-10T06:40:46;-5.60;52.50
67196;DHT22;54122;53.538;49.366;2022-12-10T06:43:12;-5.60;52.30
67196;DHT22;54122;53.538;49.366;2022-12-10T06:45:43;-5.60;52.40
67196;DHT22;54122;53.538;49.366;2022-12-10T06:48:09;-5.70;52.60
67196;DHT22;54122;53.538;49.366;2022-12-10T06:50:36;-5.70;52.90
67196;DHT22;54122;53.538;49.366;2022-12-10T06:53:03;-5.70;53.20
67196;DHT22;54122;53.538;49.366;2022-12-10T06:55:29;-5.70;53.30
67196;DHT22;54122;53.538;49.366;2022-12-10T06:57:56;-5.70;53.30
67196;DHT22;54122;53.538;49.366;2022-12-10T07:00:22;-5.60;52.90
67196;DHT22;54122;53.538;49.366;2022-12-10T07:02:49;-5.50;52.70
67196;DHT22;54122;53.538;49.366;2022-12-10T07:05:16;-5.40;52.30
67196;DHT22;54122;53.538;49.366;2022-12-10T07:07:42;-5.40;52.20
67196;DHT22;54122;53.538;49.366;2022-12-10T07:10:09;-5.10;52.60
67196;DHT22;54122;53.538;49.366;2022-12-10T07:12:36;-4.90;51.60
67196;DHT22;54122;53.538;49.366;2022-12-10T07:15:03;-4.80;51.00
67196;DHT22;54122;53.538;49.366;2022-12-10T07:17:29;-4.70;49.90
67196;DHT22;54122;53.538;49.366;2022-12-10T07:19:56;-4.40;50.00
67196;DHT22;54122;53.538;49.366;2022-12-10T07:22:22;-4.10;49.20
67196;DHT22;54122;53.538;49.366;2022-12-10T07:24:49;-3.80;48.50
67196;DHT22;54122;53.538;49.366;2022-12-10T07:27:16;-3.60;48.00
67196;DHT22;54122;53.538;49.366;2022-12-10T07:29:44;-3.40;47.90
67196;DHT22;54122;53.538;49.366;2022-12-10T07:32:10;-3.20;47.20
67196;DHT22;54122;53.538;49.366;2022-12-10T07:34:37;-3.10;46.10
67196;DHT22;54122;53.538;49.366;2022-12-10T07:37:03;-3.40;46.00
67196;DHT22;54122;53.538;49.366;2022-12-10T07:39:30;-3.60;46.50
67196;DHT22;54122;53.538;49.366;2022-12-10T07:41:56;-3.80;47.00
67196;DHT22;54122;53.538;49.366;2022-12-10T07:44:24;-3.70;47.30
67196;DHT22;54122;53.538;49.366;2022-12-10T07:46:53;-3.60;47.30
67196;DHT22;54122;53.538;49.366;2022-12-10T07:49:20;-3.70;47.20
67196;DHT22;54122;53.538;49.366;2022-12-10T07:51:50;-3.80;47.20
67196;DHT22;54122;53.538;49.366;2022-12-10T07:54:17;-3.90;47.10
67196;DHT22;54122;53.538;49.366;2022-12-10T07:56:44;-4.20;47.20
67196;DHT22;54122;53.538;49.366;2022-12-10T07:59:11;-4.30;47.70
67196;DHT22;54122;53.538;49.366;2022-12-10T08:01:37;-4.50;48.30
67196;DHT22;54122;53.538;49.366;2022-12-10T08:04:04;-4.60;48.60
67196;DHT22;54122;53.538;49.366;2022-12-10T08:06:30;-4.70;49.10
67196;DHT22;54122;53.538;49.366;2022-12-10T08:08:58;-4.80;49.40
67196;DHT22;54122;53.538;49.366;2022-12-10T08:11:26;-4.90;49.70
67196;DHT22;54122;53.538;49.366;2022-12-10T08:13:53;-4.80;49.80
67196;DHT22;54122;53.538;49.366;2022-12-10T08:16:21;-4.70;49.80
67196;DHT22;54122;53.538;49.366;2022-12-10T08:18:58;-4.60;49.80
67196;DHT22;54122;53.538;49.366;2022-12-10T08:21:28;-4.50;49.40
67196;DHT22;54122;53.538;49.366;2022-12-10T08:23:55;-4.50;49.30
67196;DHT22;54122;53.538;49.366;2022-12-10T08:26:24;-4.50;49.20
67196;DHT22;54122;53.538;49.366;2022-12-10T08:28:50;-4.50;49.00
67196;DHT22;54122;53.538;49.366;2022-12-10T08:31:19;-4.50;48.80
67196;DHT22;54122;53.538;49.366;2022-12-10T08:33:46;-4.30;48.70
67196;DHT22;54122;53.538;49.366;2022-12-10T08:36:14;-4.10;48.50
67196;DHT22;54122;53.538;49.366;2022-12-10T08:38:42;-3.90;48.00
67196;DHT22;54122;53.538;49.366;2022-12-10T08:41:20;-3.80;47.80
67196;DHT22;54122;53.538;49.366;2022-12-10T08:43:48;-3.50;47.30
67196;DHT22;54122;53.538;49.366;2022-12-10T08:46:15;-3.20;46.50
67196;DHT22;54122;53.538;49.366;2022-12-10T08:48:42;-3.00;45.90
67196;DHT22;54122;53.538;49.366;2022-12-10T08:51:11;-2.90;45.70
67196;DHT22;54122;53.538;49.366;2022-12-10T08:53:39;-2.80;45.50
67196;DHT22;54122;53.538;49.366;2022-12-10T08:56:06;-2.80;45.10
67196;DHT22;54122;53.538;49.366;2022-12-10T08:58:32;-2.90;44.70
67196;DHT22;54122;53.538;49.366;2022-12-10T09:00:59;-2.90;45.10
67196;DHT22;54122;53.538;49.366;2022-12-10T09:03:27;-3.00;45.10
67196;DHT22;54122;53.538;49.366;2022-12-10T09:05:53;-3.10;45.10
67196;DHT22;54122;53.538;49.366;2022-12-10T09:08:20;-3.10;45.50
67196;DHT22;54122;53.538;49.366;2022-12-10T09:10:46;-3.10;45.70
67196;DHT22;54122;53.538;49.366;2022-12-10T09:13:13;-3.10;45.80
67196;DHT22;54122;53.538;49.366;2022-12-10T09:15:40;-3.00;45.80
67196;DHT22;54122;53.538;49.366;2022-12-10T09:18:06;-2.90;45.50
67196;DHT22;54122;53.538;49.366;2022-12-10T09:20:33;-2.90;45.00
67196;DHT22;54122;53.538;49.366;2022-12-10T09:23:01;-2.90;44.90
67196;DHT22;54122;53.538;49.366;2022-12-10T09:25:28;-2.90;45.20
67196;DHT22;54122;53.538;49.366;2022-12-10T09:27:55;-2.80;44.60
67196;DHT22;54122;53.538;49.366;2022-12-10T09:30:21;-2.70;44.40
67196;DHT22;54122;53.538;49.366;2022-12-10T09:32:48;-2.60;44.40
67196;DHT22;54122;53.538;49.366;2022-12-10T09:35:16;-2.40;44.20
67196;DHT22;54122;53.538;49.366;2022-12-10T09:37:43;-2.40;43.80
67196;DHT22;54122;53.538;49.366;2022-12-10T09:40:17;-2.30;43.10
67196;DHT22;54122;53.538;49.366;2022-12-10T09:43:19;-2.30;43.10
67196;DHT22;54122;53.538;49.366;2022-12-10T09:53:28;-2.50;43.10
67196;DHT22;54122;53.538;49.366;2022-12-10T09:55:56;-2.50;43.40
67196;DHT22;54122;53.538;49.366;2022-12-10T09:58:26;-2.60;43.50
67196;DHT22;54122;53.538;49.366;2022-12-10T10:01:02;-2.60;43.20
67196;DHT22;54122;53.538;49.366;2022-12-10T10:03:38;-2.50;43.50
67196;DHT22;54122;53.538;49.366;2022-12-10T10:06:12;-2.50;43.00
67196;DHT22;54122;53.538;49.366;2022-12-10T10:08:47;-2.50;42.90
67196;DHT22;54122;53.538;49.366;2022-12-10T10:11:23;-2.50;42.70
67196;DHT22;54122;53.538;49.366;2022-12-10T10:14:42;-2.60;42.60
67196;DHT22;54122;53.538;49.366;2022-12-10T10:17:08;-2.70;42.70
67196;DHT22;54122;53.538;49.366;2022-12-10T10:19:35;-2.80;43.00
67196;DHT22;54122;53.538;49.366;2022-12-10T10:22:05;-2.90;43.10
67196;DHT22;54122;53.538;49.366;2022-12-10T10:24:42;-2.90;43.00
67196;DHT22;54122;53.538;49.366;2022-12-10T10:27:23;-2.90;43.10
67196;DHT22;54122;53.538;49.366;2022-12-10T10:29:56;-2.90;43.10
67196;DHT22;54122;53.538;49.366;2022-12-10T10:32:26;-2.80;43.10
67196;DHT22;54122;53.538;49.366;2022-12-10T10:34:56;-2.80;42.90
67196;DHT22;54122;53.538;49.366;2022-12-10T10:37:27;-2.80;43.30
67196;DHT22;54122;53.538;49.366;2022-12-10T10:39:56;-2.90;43.10
67196;DHT22;54122;53.538;49.366;2022-12-10T10:44:54;-2.80;43.30
67196;DHT22;54122;53.538;49.366;2022-12-10T10:47:31;-2.80;43.10
67196;DHT22;54122;53.538;49.366;2022-12-10T10:49:57;-2.80;43.30
67196;DHT22;54122;53.538;49.366;2022-12-10T10:52:29;-2.80;43.00
67196;DHT22;54122;53.538;49.366;2022-12-10T10:54:56;-2.80;43.10
67196;DHT22;54122;53.538;49.366;2022-12-10T10:57:29;-2.90;43.10
67196;DHT22;54122;53.538;49.366;2022-12-10T11:02:44;-3.00;43.30
67196;DHT22;54122;53.538;49.366;2022-12-10T11:05:21;-3.00;43.40
67196;DHT22;54122;53.538;49.366;2022-12-10T11:07:58;-3.00;43.60
67196;DHT22;54122;53.538;49.366;2022-12-10T11:10:26;-3.10;43.90
67196;DHT22;54122;53.538;49.366;2022-12-10T11:13:03;-3.10;44.00
67196;DHT22;54122;53.538;49.366;2022-12-10T11:17:57;-3.20;44.20
67196;DHT22;54122;53.538;49.366;2022-12-10T11:20:33;-3.20;44.40
67196;DHT22;54122;53.538;49.366;2022-12-10T11:23:05;-3.30;44.70
67196;DHT22;54122;53.538;49.366;2022-12-10T11:28:18;-3.40;45.40
67196;DHT22;54122;53.538;49.366;2022-12-10T11:42:55;-3.80;46.60
67196;DHT22;54122;53.538;49.366;2022-12-10T11:48:32;-3.80;47.20
67196;DHT22;54122;53.538;49.366;2022-12-10T11:51:16;-3.80;47.50
67196;DHT22;54122;53.538;49.366;2022-12-10T11:56:33;-3.90;47.80
67196;DHT22;54122;53.538;49.366;2022-12-10T11:59:09;-3.90;48.00
67196;DHT22;54122;53.538;49.366;2022-12-10T12:10:11;-4.00;48.60
67196;DHT22;54122;53.538;49.366;2022-12-10T12:13:02;-4.00;48.80
67196;DHT22;54122;53.538;49.366;2022-12-10T12:15:42;-4.10;49.10
67196;DHT22;54122;53.538;49.366;2022-12-10T12:19:04;-4.10;49.50
67196;DHT22;54122;53.538;49.366;2022-12-10T12:21:29;-4.20;49.50
67196;DHT22;54122;53.538;49.366;2022-12-10T12:26:49;-4.30;50.00
67196;DHT22;54122;53.538;49.366;2022-12-10T12:29:44;-4.30;50.40
67196;DHT22;54122;53.538;49.366;2022-12-10T12:32:19;-4.30;50.60
67196;DHT22;54122;53.538;49.366;2022-12-10T12:37:18;-4.40;50.90
67196;DHT22;54122;53.538;49.366;2022-12-10T12:42:35;-4.40;51.30
67196;DHT22;54122;53.538;49.366;2022-12-10T12:48:04;-4.50;51.60
67196;DHT22;54122;53.538;49.366;2022-12-10T12:50:54;-4.40;51.80
67196;DHT22;54122;53.538;49.366;2022-12-10T12:53:25;-4.50;51.80
67196;DHT22;54122;53.538;49.366;2022-12-10T13:01:08;-4.50;52.30
67196;DHT22;54122;53.538;49.366;2022-12-10T13:03:41;-4.50;52.50
67196;DHT22;54122;53.538;49.366;2022-12-10T13:06:25;-4.60;52.70
67196;DHT22;54122;53.538;49.366;2022-12-10T13:11:40;-4.60;53.00
67196;DHT22;54122;53.538;49.366;2022-12-10T13:27:16;-4.60;53.60
67196;DHT22;54122;53.538;49.366;2022-12-10T13:32:17;-4.70;53.80
67196;DHT22;54122;53.538;49.366;2022-12-10T13:34:44;-4.70;53.80
67196;DHT22;54122;53.538;49.366;2022-12-10T13:37:15;-4.70;53.80
67196;DHT22;54122;53.538;49.366;2022-12-10T13:39:58;-4.60;53.80
67196;DHT22;54122;53.538;49.366;2022-12-10T13:42:29;-4.60;53.70
67196;DHT22;54122;53.538;49.366;2022-12-10T13:47:50;-4.60;53.70
67196;DHT22;54122;53.538;49.366;2022-12-10T14:01:00;-4.50;53.30
67196;DHT22;54122;53.538;49.366;2022-12-10T14:06:20;-4.60;53.60
67196;DHT22;54122;53.538;49.366;2022-12-10T14:14:43;-4.60;53.50
67196;DHT22;54122;53.538;49.366;2022-12-10T14:17:16;-4.60;53.30
67196;DHT22;54122;53.538;49.366;2022-12-10T14:19:46;-4.60;53.20
67196;DHT22;54122;53.538;49.366;2022-12-10T14:22:24;-4.60;53.30
67196;DHT22;54122;53.538;49.366;2022-12-10T14:24:51;-4.60;53.30
67196;DHT22;54122;53.538;49.366;2022-12-10T14:27:27;-4.50;53.20
67196;DHT22;54122;53.538;49.366;2022-12-10T14:30:15;-4.60;53.10
67196;DHT22;54122;53.538;49.366;2022-12-10T14:32:42;-4.50;53.10
67196;DHT22;54122;53.538;49.366;2022-12-10T14:35:20;-4.50;53.00
67196;DHT22;54122;53.538;49.366;2022-12-10T14:37:49;-4.50;53.00
67196;DHT22;54122;53.538;49.366;2022-12-10T14:42:54;-4.50;53.00
67196;DHT22;54122;53.538;49.366;2022-12-10T14:45:21;-4.60;53.10
67196;DHT22;54122;53.538;49.366;2022-12-10T14:47:48;-4.60;53.20
67196;DHT22;54122;53.538;49.366;2022-12-10T14:50:16;-4.70;53.40
67196;DHT22;54122;53.538;49.366;2022-12-10T14:52:51;-4.70;53.60
67196;DHT22;54122;53.538;49.366;2022-12-10T14:55:23;-4.70;53.80
67196;DHT22;54122;53.538;49.366;2022-12-10T14:58:02;-4.80;53.90
67196;DHT22;54122;53.538;49.366;2022-12-10T15:00:30;-4.80;54.10
67196;DHT22;54122;53.538;49.366;2022-12-10T15:03:00;-4.80;54.30
67196;DHT22;54122;53.538;49.366;2022-12-10T15:05:30;-4.80;54.40
67196;DHT22;54122;53.538;49.366;2022-12-10T15:08:06;-4.80;54.40
67196;DHT22;54122;53.538;49.366;2022-12-10T15:10:37;-4.80;54.20
67196;DHT22;54122;53.538;49.366;2022-12-10T15:13:05;-4.80;54.20
67196;DHT22;54122;53.538;49.366;2022-12-10T15:15:37;-4.80;54.20
67196;DHT22;54122;53.538;49.366;2022-12-10T15:20:52;-4.90;54.50
67196;DHT22;54122;53.538;49.366;2022-12-10T15:23:31;-4.90;54.40
67196;DHT22;54122;53.538;49.366;2022-12-10T15:26:43;-4.90;54.30
67196;DHT22;54122;53.538;49.366;2022-12-10T15:29:14;-4.90;54.50
67196;DHT22;54122;53.538;49.366;2022-12-10T15:31:41;-4.90;54.50
67196;DHT22;54122;53.538;49.366;2022-12-10T15:34:12;-4.90;54.60
67196;DHT22;54122;53.538;49.366;2022-12-10T15:36:50;-4.90;54.50
67196;DHT22;54122;53.538;49.366;2022-12-10T15:39:21;-4.90;54.50
67196;DHT22;54122;53.538;49.366;2022-12-10T15:41:59;-4.90;54.60
67196;DHT22;54122;53.538;49.366;2022-12-10T15:44:27;-4.90;54.70
67196;DHT22;54122;53.538;49.366;2022-12-10T15:49:42;-5.00;54.90
67196;DHT22;54122;53.538;49.366;2022-12-10T15:52:13;-5.00;54.90
67196;DHT22;54122;53.538;49.366;2022-12-10T15:54:42;-5.00;54.60
67196;DHT22;54122;53.538;49.366;2022-12-10T15:57:27;-5.00;54.60
67196;DHT22;54122;53.538;49.366;2022-12-10T15:59:56;-5.10;54.60
67196;DHT22;54122;53.538;49.366;2022-12-10T16:02:39;-5.10;54.70
67196;DHT22;54122;53.538;49.366;2022-12-10T16:07:46;-5.20;55.00
67196;DHT22;54122;53.538;49.366;2022-12-10T16:10:14;-5.30;55.10
67196;DHT22;54122;53.538;49.366;2022-12-10T16:12:43;-5.30;55.20
67196;DHT22;54122;53.538;49.366;2022-12-10T16:15:23;-5.30;55.30
67196;DHT22;54122;53.538;49.366;2022-12-10T16:17:53;-5.30;55.30
67196;DHT22;54122;53.538;49.366;2022-12-10T16:20:29;-5.30;55.30
67196;DHT22;54122;53.538;49.366;2022-12-10T16:22:57;-5.30;55.50
67196;DHT22;54122;53.538;49.366;2022-12-10T16:25:28;-5.30;55.60
67196;DHT22;54122;53.538;49.366;2022-12-10T16:27:55;-5.40;55.80
67196;DHT22;54122;53.538;49.366;2022-12-10T16:30:25;-5.40;56.00
67196;DHT22;54122;53.538;49.366;2022-12-10T16:32:51;-5.40;56.30
67196;DHT22;54122;53.538;49.366;2022-12-10T16:35:18;-5.40;56.40
67196;DHT22;54122;53.538;49.366;2022-12-10T16:37:46;-5.40;56.40
67196;DHT22;54122;53.538;49.366;2022-12-10T16:40:18;-5.30;56.50
67196;DHT22;54122;53.538;49.366;2022-12-10T16:42:44;-5.20;56.20
67196;DHT22;54122;53.538;49.366;2022-12-10T16:45:35;-5.00;55.60
67196;DHT22;54122;53.538;49.366;2022-12-10T16:48:03;-4.80;54.80
67196;DHT22;54122;53.538;49.366;2022-12-10T16:50:31;-4.70;53.90
67196;DHT22;54122;53.538;49.366;2022-12-10T16:52:58;-4.60;53.70
67196;DHT22;54122;53.538;49.366;2022-12-10T16:55:27;-4.50;53.40
67196;DHT22;54122;53.538;49.366;2022-12-10T16:57:56;-4.50;52.90
67196;DHT22;54122;53.538;49.366;2022-12-10T17:00:24;-4.40;52.70
67196;DHT22;54122;53.538;49.366;2022-12-10T17:02:51;-4.40;52.50
67196;DHT22;54122;53.538;49.366;2022-12-10T17:05:36;-4.40;52.30
67196;DHT22;54122;53.538;49.366;2022-12-10T17:08:05;-4.30;52.20
67196;DHT22;54122;53.538;49.366;2022-12-10T17:10:31;-4.30;52.00
67196;DHT22;54122;53.538;49.366;2022-12-10T17:13:16;-4.40;52.00
67196;DHT22;54122;53.538;49.366;2022-12-10T17:15:43;-4.40;52.00
67196;DHT22;54122;53.538;49.366;2022-12-10T17:18:14;-4.40;51.90
67196;DHT22;54122;53.538;49.366;2022-12-10T17:20:40;-4.40;51.90
67196;DHT22;54122;53.538;49.366;2022-12-10T17:23:12;-4.40;51.80
67196;DHT22;54122;53.538;49.366;2022-12-10T17:25:44;-4.40;51.40
67196;DHT22;54122;53.538;49.366;2022-12-10T17:28:20;-4.40;51.30
67196;DHT22;54122;53.538;49.366;2022-12-10T17:30:51;-4.30;51.30
67196;DHT22;54122;53.538;49.366;2022-12-10T17:33:25;-4.30;50.90
67196;DHT22;54122;53.538;49.366;2022-12-10T17:35:56;-4.20;50.80
67196;DHT22;54122;53.538;49.366;2022-12-10T17:38:29;-4.20;50.50
67196;DHT22;54122;53.538;49.366;2022-12-10T17:41:00;-4.20;50.00
67196;DHT22;54122;53.538;49.366;2022-12-10T17:43:32;-4.10;50.10
67196;DHT22;54122;53.538;49.366;2022-12-10T17:46:04;-4.20;50.10
67196;DHT22;54122;53.538;49.366;2022-12-10T17:48:35;-4.20;50.00
67196;DHT22;54122;53.538;49.366;2022-12-10T17:51:08;-4.20;49.90
67196;DHT22;54122;53.538;49.366;2022-12-10T17:53:40;-4.20;49.70